createdAt,value
2024-03-20T00:00:59.256Z,980.1
2024-03-20T00:01:59.259Z,980.1
2024-03-20T00:02:59.251Z,979.9
2024-03-20T00:03:59.250Z,980.1
2024-03-20T00:04:59.260Z,980.1
2024-03-20T00:05:59.255Z,980.1
2024-03-20T00:06:59.249Z,979.9
2024-03-20T00:07:59.258Z,980.1
2024-03-20T00:08:59.249Z,980.1
2024-03-20T00:09:59.254Z,980.1
2024-03-20T00:10:59.252Z,980.1
2024-03-20T00:11:59.270Z,980.1
2024-03-20T00:12:59.251Z,980.4
2024-03-20T00:13:59.254Z,980.4
2024-03-20T00:14:59.251Z,980.6
2024-03-20T00:15:59.258Z,980.6
2024-03-20T00:16:59.255Z,980.1
2024-03-20T00:17:59.250Z,980.1
2024-03-20T00:18:59.250Z,980.6
2024-03-20T00:19:59.254Z,980.6
2024-03-20T00:20:59.253Z,980.6
2024-03-20T00:21:59.286Z,980.6
2024-03-20T00:22:59.250Z,980.8
2024-03-20T00:23:59.316Z,980.8
2024-03-20T00:24:59.247Z,981
2024-03-20T00:25:59.251Z,981
2024-03-20T00:26:59.260Z,981
2024-03-20T00:27:59.281Z,981
2024-03-20T00:28:59.271Z,981
2024-03-20T00:29:59.263Z,981
2024-03-20T00:30:59.246Z,981
2024-03-20T00:31:59.250Z,981
2024-03-20T00:32:59.251Z,981
2024-03-20T00:33:59.257Z,981
2024-03-20T00:34:59.251Z,981
2024-03-20T00:35:59.251Z,981.4
2024-03-20T00:36:59.255Z,981.4
2024-03-20T00:37:59.277Z,981.4
2024-03-20T00:38:59.251Z,981.4
2024-03-20T00:39:59.247Z,981.4
2024-03-20T00:40:59.273Z,981.4
2024-03-20T00:41:59.261Z,981.4
2024-03-20T00:42:59.248Z,981.4
2024-03-20T00:43:59.247Z,981.4
2024-03-20T00:44:59.272Z,981.4
2024-03-20T00:45:59.255Z,981.4
2024-03-20T00:46:59.254Z,981.4
2024-03-20T00:47:59.280Z,981.4
2024-03-20T00:48:59.249Z,981.4
2024-03-20T00:49:59.256Z,981.2
2024-03-20T00:50:59.249Z,981.2
2024-03-20T00:51:59.252Z,981.2
2024-03-20T00:52:59.250Z,981.2
2024-03-20T00:53:59.257Z,981.2
2024-03-20T00:54:59.259Z,981
2024-03-20T00:55:59.252Z,981
2024-03-20T00:56:59.254Z,981
2024-03-20T00:57:59.290Z,981
2024-03-20T00:58:59.281Z,981.2
2024-03-20T00:59:59.265Z,981.2
2024-03-20T01:00:59.277Z,981.2
2024-03-20T01:01:59.264Z,981.2
2024-03-20T01:02:59.249Z,981.4
2024-03-20T01:03:59.250Z,981.4
2024-03-20T01:04:59.249Z,981.4
2024-03-20T01:05:59.255Z,981.4
2024-03-20T01:06:59.250Z,981.4
2024-03-20T01:07:59.254Z,981.4
2024-03-20T01:08:59.253Z,981.7
2024-03-20T01:09:59.262Z,981.9
2024-03-20T01:10:59.265Z,981.9
2024-03-20T01:11:59.254Z,981.9
2024-03-20T01:12:59.262Z,981.9
2024-03-20T01:13:59.252Z,981.9
2024-03-20T01:14:59.268Z,981.9
2024-03-20T01:15:59.249Z,981.9
2024-03-20T01:16:59.249Z,981.9
2024-03-20T01:17:59.249Z,981.9
2024-03-20T01:18:59.257Z,981.4
2024-03-20T01:19:59.274Z,981.7
2024-03-20T01:20:59.253Z,981.4
2024-03-20T01:21:59.350Z,981.4
2024-03-20T01:22:59.245Z,981.4
2024-03-20T01:23:59.255Z,981.4
2024-03-20T01:24:59.251Z,981
2024-03-20T01:25:59.281Z,981
2024-03-20T01:26:59.266Z,980.8
2024-03-20T01:27:59.277Z,980.8
2024-03-20T01:28:59.254Z,981
2024-03-20T01:29:59.306Z,981
2024-03-20T01:30:59.265Z,981
2024-03-20T01:31:59.252Z,980.8
2024-03-20T01:32:59.283Z,980.6
2024-03-20T01:33:59.267Z,980.6
2024-03-20T01:34:59.253Z,980.6
2024-03-20T01:35:59.256Z,980.6
2024-03-20T01:36:59.284Z,980.4
2024-03-20T01:37:59.250Z,980.6
2024-03-20T01:38:59.263Z,980.6
2024-03-20T01:39:59.269Z,980.6
2024-03-20T01:40:59.271Z,980.6
2024-03-20T01:41:59.276Z,980.6
2024-03-20T01:42:59.253Z,980.8
2024-03-20T01:43:59.259Z,981
2024-03-20T01:44:59.259Z,980.8
2024-03-20T01:45:59.257Z,981
2024-03-20T01:46:59.255Z,980.8
2024-03-20T01:47:59.254Z,980.6
2024-03-20T01:48:59.256Z,980.6
2024-03-20T01:49:59.268Z,980.6
2024-03-20T01:50:59.252Z,980.6
2024-03-20T01:51:59.350Z,980.6
2024-03-20T01:52:59.284Z,980.6
2024-03-20T01:53:59.261Z,980.6
2024-03-20T01:54:59.253Z,980.6
2024-03-20T01:55:59.281Z,980.4
2024-03-20T01:56:59.273Z,980.6
2024-03-20T01:57:59.250Z,980.1
2024-03-20T01:58:59.253Z,980.1
2024-03-20T01:59:59.258Z,980.4
2024-03-20T02:00:59.274Z,980.6
2024-03-20T02:01:59.251Z,980.6
2024-03-20T02:02:59.257Z,980.6
2024-03-20T02:03:59.286Z,980.4
2024-03-20T02:04:59.251Z,980.4
2024-03-20T02:05:59.250Z,980.6
2024-03-20T02:06:59.258Z,980.6
2024-03-20T02:07:59.254Z,980.6
2024-03-20T02:08:59.258Z,980.6
2024-03-20T02:09:59.262Z,980.4
2024-03-20T02:10:59.254Z,980.4
2024-03-20T02:11:59.254Z,980.4
2024-03-20T02:12:59.265Z,980.6
2024-03-20T02:13:59.274Z,980.4
2024-03-20T02:14:59.266Z,980.6
2024-03-20T02:15:59.256Z,980.6
2024-03-20T02:16:59.261Z,980.8
2024-03-20T02:17:59.255Z,980.8
2024-03-20T02:18:59.254Z,980.8
2024-03-20T02:19:59.256Z,980.6
2024-03-20T02:20:59.250Z,980.8
2024-03-20T02:21:59.281Z,980.6
2024-03-20T02:22:59.294Z,980.6
2024-03-20T02:23:59.253Z,980.4
2024-03-20T02:24:59.254Z,980.6
2024-03-20T02:25:59.252Z,980.4
2024-03-20T02:26:59.251Z,980.1
2024-03-20T02:27:59.281Z,980.4
2024-03-20T02:28:59.263Z,980.4
2024-03-20T02:29:59.259Z,980.1
2024-03-20T02:30:59.254Z,980.1
2024-03-20T02:31:59.252Z,980.1
2024-03-20T02:32:59.253Z,980.1
2024-03-20T02:33:59.265Z,980.4
2024-03-20T02:34:59.259Z,980.1
2024-03-20T02:35:59.250Z,980.1
2024-03-20T02:36:59.253Z,980.1
2024-03-20T02:37:59.255Z,980.1
2024-03-20T02:38:59.266Z,980.6
2024-03-20T02:39:59.289Z,980.6
2024-03-20T02:40:59.262Z,980.6
2024-03-20T02:41:59.256Z,980.6
2024-03-20T02:42:59.277Z,981
2024-03-20T02:43:59.258Z,980.6
2024-03-20T02:44:59.266Z,980.6
2024-03-20T02:45:59.260Z,981
2024-03-20T02:46:59.261Z,980.8
2024-03-20T02:47:59.259Z,981.2
2024-03-20T02:48:59.257Z,981.4
2024-03-20T02:49:59.256Z,981.2
2024-03-20T02:50:59.255Z,981.4
2024-03-20T02:51:59.256Z,981.2
2024-03-20T02:52:59.263Z,981.4
2024-03-20T02:53:59.259Z,981.2
2024-03-20T02:54:59.253Z,981
2024-03-20T02:55:59.263Z,980.8
2024-03-20T02:56:59.254Z,980.8
2024-03-20T02:57:59.258Z,980.6
2024-03-20T02:58:59.261Z,980.6
2024-03-20T02:59:59.353Z,980.6
2024-03-20T03:00:59.138Z,980.1
2024-03-20T03:01:59.265Z,980.4
2024-03-20T03:02:59.263Z,980.1
2024-03-20T03:03:59.295Z,980.6
2024-03-20T03:04:59.263Z,980.6
2024-03-20T03:05:59.269Z,980.6
2024-03-20T03:06:59.281Z,980.1
2024-03-20T03:07:59.262Z,979.7
2024-03-20T03:08:59.263Z,980.1
2024-03-20T03:09:59.292Z,980.1
2024-03-20T03:10:59.270Z,980.1
2024-03-20T03:11:59.265Z,980.1
2024-03-20T03:12:59.289Z,980.6
2024-03-20T03:13:59.255Z,980.8
2024-03-20T03:15:06.883Z,980.6
2024-03-20T03:15:59.259Z,980.6
2024-03-20T03:16:59.268Z,981
2024-03-20T03:17:59.270Z,981.2
2024-03-20T03:18:59.267Z,981
2024-03-20T03:19:59.303Z,981
2024-03-20T03:20:59.276Z,981.2
2024-03-20T03:21:59.290Z,981
2024-03-20T03:22:59.274Z,981.2
2024-03-20T03:23:59.266Z,981.2
2024-03-20T03:24:59.270Z,981.2
2024-03-20T03:25:59.291Z,980.6
2024-03-20T03:26:59.295Z,980.6
2024-03-20T03:27:59.276Z,980.6
2024-03-20T03:28:59.254Z,981
2024-03-20T03:29:59.313Z,980.6
2024-03-20T03:30:59.259Z,980.6
2024-03-20T03:31:59.255Z,980.6
2024-03-20T03:32:59.249Z,980.8
2024-03-20T03:33:59.255Z,980.6
2024-03-20T03:34:59.265Z,980.6
2024-03-20T03:35:59.260Z,980.6
2024-03-20T03:36:59.316Z,980.6
2024-03-20T03:37:59.253Z,980.6
2024-03-20T03:38:59.254Z,980.6
2024-03-20T03:39:59.274Z,980.6
2024-03-20T03:40:59.255Z,981
2024-03-20T03:41:59.260Z,981
2024-03-20T03:42:59.253Z,981
2024-03-20T03:43:59.255Z,981.4
2024-03-20T03:44:59.296Z,981.2
2024-03-20T03:45:59.254Z,981
2024-03-20T03:46:59.252Z,981
2024-03-20T03:47:59.270Z,981
2024-03-20T03:48:59.258Z,981
2024-03-20T03:49:59.258Z,981.7
2024-03-20T03:50:59.252Z,981.7
2024-03-20T03:51:59.257Z,981.9
2024-03-20T03:52:59.256Z,982.3
2024-03-20T03:53:59.575Z,981.9
2024-03-20T03:54:59.261Z,981.9
2024-03-20T03:55:59.254Z,982.1
2024-03-20T03:56:59.256Z,982.1
2024-03-20T03:57:59.261Z,981.9
2024-03-20T03:58:59.255Z,981.9
2024-03-20T03:59:59.296Z,982.1
2024-03-20T04:00:59.286Z,982.1
2024-03-20T04:01:59.258Z,982.3
2024-03-20T04:02:59.285Z,982.1
2024-03-20T04:03:59.260Z,981.9
2024-03-20T04:04:59.264Z,981.7
2024-03-20T04:05:59.286Z,981.9
2024-03-20T04:06:59.257Z,981.4
2024-03-20T04:07:59.255Z,981.7
2024-03-20T04:08:59.261Z,981.7
2024-03-20T04:09:59.309Z,981.4
2024-03-20T04:10:59.252Z,981.4
2024-03-20T04:11:59.263Z,981.4
2024-03-20T04:12:59.254Z,981.4
2024-03-20T04:13:59.261Z,981.2
2024-03-20T04:14:59.266Z,981.2
2024-03-20T04:15:59.268Z,981.2
2024-03-20T04:16:59.287Z,981
2024-03-20T04:17:59.260Z,981.4
2024-03-20T04:18:59.258Z,981.4
2024-03-20T04:19:59.272Z,981.2
2024-03-20T04:20:59.265Z,981.4
2024-03-20T04:21:59.265Z,981.4
2024-03-20T04:22:59.261Z,981.7
2024-03-20T04:23:59.260Z,981.7
2024-03-20T04:24:59.262Z,981.9
2024-03-20T04:25:59.291Z,981.7
2024-03-20T04:26:59.290Z,981.9
2024-03-20T04:27:59.262Z,981.9
2024-03-20T04:28:59.259Z,981.7
2024-03-20T04:29:59.303Z,981.9
2024-03-20T04:30:59.260Z,981.9
2024-03-20T04:31:59.269Z,981.9
2024-03-20T04:32:59.255Z,982.1
2024-03-20T04:33:59.260Z,982.1
2024-03-20T04:34:59.261Z,981.9
2024-03-20T04:35:59.258Z,981.7
2024-03-20T04:36:59.259Z,981.4
2024-03-20T04:37:59.258Z,981.4
2024-03-20T04:38:59.261Z,981.4
2024-03-20T04:39:59.293Z,981.4
2024-03-20T04:40:59.269Z,981.4
2024-03-20T04:41:59.261Z,981.4
2024-03-20T04:42:59.262Z,981.9
2024-03-20T04:43:59.269Z,981.7
2024-03-20T04:44:59.273Z,982.1
2024-03-20T04:45:59.279Z,981.9
2024-03-20T04:46:59.267Z,981.9
2024-03-20T04:47:59.263Z,981.9
2024-03-20T04:48:59.259Z,981.9
2024-03-20T04:49:59.280Z,981.9
2024-03-20T04:50:59.258Z,981.9
2024-03-20T04:51:59.257Z,981.9
2024-03-20T04:52:59.264Z,981.4
2024-03-20T04:53:59.257Z,981.7
2024-03-20T04:54:59.259Z,981.4
2024-03-20T04:55:59.259Z,981.7
2024-03-20T04:56:59.258Z,981.9
2024-03-20T04:57:59.261Z,981.4
2024-03-20T04:58:59.261Z,981.9
2024-03-20T04:59:59.260Z,981.9
2024-03-20T05:00:59.254Z,981.9
2024-03-20T05:01:59.256Z,981.9
2024-03-20T05:02:59.257Z,981.7
2024-03-20T05:03:59.259Z,981.4
2024-03-20T05:04:59.272Z,981.4
2024-03-20T05:05:59.260Z,981.4
2024-03-20T05:06:59.259Z,981.7
2024-03-20T05:07:59.256Z,981.7
2024-03-20T05:08:59.256Z,981.7
2024-03-20T05:09:59.277Z,981.9
2024-03-20T05:10:59.292Z,981.9
2024-03-20T05:11:59.253Z,981.7
2024-03-20T05:12:59.256Z,981.4
2024-03-20T05:13:59.266Z,981.4
2024-03-20T05:14:59.259Z,981.4
2024-03-20T05:15:59.260Z,981.4
2024-03-20T05:16:59.259Z,981.7
2024-03-20T05:17:59.260Z,981.9
2024-03-20T05:18:59.262Z,981.9
2024-03-20T05:19:59.264Z,982.3
2024-03-20T05:20:59.256Z,982.5
2024-03-20T05:21:59.261Z,982.7
2024-03-20T05:22:59.259Z,982.7
2024-03-20T05:23:59.263Z,982.7
2024-03-20T05:24:59.264Z,982.7
2024-03-20T05:25:59.296Z,982.5
2024-03-20T05:26:59.267Z,982.5
2024-03-20T05:27:59.272Z,982.3
2024-03-20T05:28:59.285Z,982.3
2024-03-20T05:29:59.287Z,982.3
2024-03-20T05:30:59.264Z,982.1
2024-03-20T05:31:59.267Z,981.9
2024-03-20T05:32:59.278Z,981.9
2024-03-20T05:33:59.264Z,982.1
2024-03-20T05:34:59.261Z,981.9
2024-03-20T05:35:59.260Z,981.9
2024-03-20T05:36:59.264Z,981.9
2024-03-20T05:37:59.256Z,981.9
2024-03-20T05:38:59.265Z,982.3
2024-03-20T05:39:59.266Z,982.3
2024-03-20T05:40:59.263Z,982.1
2024-03-20T05:41:59.263Z,981.9
2024-03-20T05:42:59.261Z,981.9
2024-03-20T05:43:59.278Z,981.9
2024-03-20T05:44:59.269Z,981.9
2024-03-20T05:45:59.267Z,981.7
2024-03-20T05:46:59.278Z,981.7
2024-03-20T05:47:59.265Z,981.7
2024-03-20T05:48:59.261Z,981.9
2024-03-20T05:49:59.293Z,982.1
2024-03-20T05:50:59.301Z,982.3
2024-03-20T05:51:59.279Z,982.3
2024-03-20T05:52:59.304Z,982.3
2024-03-20T05:53:59.262Z,982.3
2024-03-20T05:54:59.264Z,982.3
2024-03-20T05:55:59.265Z,982.3
2024-03-20T05:56:59.259Z,982.3
2024-03-20T05:57:59.278Z,982.3
2024-03-20T05:58:59.273Z,982.3
2024-03-20T05:59:59.303Z,982.5
2024-03-20T06:00:59.264Z,982.5
2024-03-20T06:01:59.262Z,982.5
2024-03-20T06:02:59.270Z,982.7
2024-03-20T06:03:59.286Z,982.7
2024-03-20T06:05:01.039Z,982.7
2024-03-20T06:05:59.274Z,982.7
2024-03-20T06:06:59.263Z,982.7
2024-03-20T06:07:59.262Z,983
2024-03-20T06:09:59.352Z,983
2024-03-20T06:10:59.303Z,983
2024-03-20T06:11:59.282Z,983.2
2024-03-20T06:12:59.274Z,983
2024-03-20T06:13:59.269Z,983
2024-03-20T06:14:59.323Z,983
2024-03-20T06:15:59.262Z,983
2024-03-20T06:16:59.262Z,982.7
2024-03-20T06:17:59.292Z,982.7
2024-03-20T06:18:59.266Z,982.7
2024-03-20T06:19:59.285Z,982.7
2024-03-20T06:20:59.263Z,982.7
2024-03-20T06:21:59.264Z,982.7
2024-03-20T06:22:59.269Z,982.5
2024-03-20T06:23:59.306Z,982.7
2024-03-20T06:24:59.274Z,982.7
2024-03-20T06:25:59.286Z,982.5
2024-03-20T06:26:59.269Z,982.7
2024-03-20T06:27:59.303Z,982.5
2024-03-20T06:28:59.408Z,982.3
2024-03-20T06:29:59.273Z,982.3
2024-03-20T06:30:59.676Z,982.3
2024-03-20T06:31:59.300Z,982.5
2024-03-20T06:32:59.267Z,982.5
2024-03-20T06:33:59.291Z,982.5
2024-03-20T06:34:59.276Z,982.3
2024-03-20T06:35:59.320Z,982.3
2024-03-20T06:36:59.264Z,982.3
2024-03-20T06:37:59.277Z,982.3
2024-03-20T06:38:59.283Z,982.3
2024-03-20T06:39:59.297Z,982.3
2024-03-20T06:40:59.279Z,982.1
2024-03-20T06:41:59.314Z,982.3
2024-03-20T06:42:59.279Z,982.1
2024-03-20T06:43:59.381Z,982.1
2024-03-20T06:44:59.596Z,981.9
2024-03-20T06:45:59.274Z,981.9
2024-03-20T06:46:59.289Z,981.9
2024-03-20T06:47:59.381Z,981.7
2024-03-20T06:48:59.266Z,981.4
2024-03-20T06:49:59.316Z,981.4
2024-03-20T06:50:59.263Z,981.4
2024-03-20T06:51:59.274Z,981.4
2024-03-20T06:52:59.329Z,981.4
2024-03-20T06:53:59.381Z,981.4
2024-03-20T06:54:59.424Z,981.2
2024-03-20T06:55:59.291Z,981.2
2024-03-20T06:56:59.297Z,981
2024-03-20T06:57:59.342Z,980.6
2024-03-20T06:58:59.265Z,980.6
2024-03-20T06:59:59.275Z,981
2024-03-20T07:00:59.306Z,980.8
2024-03-20T07:01:59.275Z,980.6
2024-03-20T07:02:59.382Z,980.6
2024-03-20T07:03:59.278Z,980.6
2024-03-20T07:04:59.271Z,980.4
2024-03-20T07:05:59.271Z,980.1
2024-03-20T07:06:59.262Z,980.1
2024-03-20T07:07:59.269Z,980.1
2024-03-20T07:08:59.299Z,980.1
2024-03-20T07:09:59.289Z,979.5
2024-03-20T07:10:59.285Z,979.5
2024-03-20T07:11:59.260Z,979.5
2024-03-20T07:12:59.275Z,979.3
2024-03-20T07:13:59.290Z,979
2024-03-20T07:14:59.285Z,979
2024-03-20T07:15:59.266Z,978.8
2024-03-20T07:17:02.682Z,978.8
2024-03-20T07:17:59.264Z,978.8
2024-03-20T07:18:59.261Z,978.4
2024-03-20T07:19:59.268Z,978.4
2024-03-20T07:20:59.275Z,978
2024-03-20T07:21:59.263Z,977.7
2024-03-20T07:22:59.270Z,978
2024-03-20T07:23:59.265Z,977.5
2024-03-20T07:24:59.266Z,977.5
2024-03-20T07:25:59.251Z,977.7
2024-03-20T07:26:59.305Z,977.5
2024-03-20T07:27:59.290Z,977.5
2024-03-20T07:28:59.263Z,977.1
2024-03-20T07:29:59.275Z,976.9
2024-03-20T07:30:59.278Z,976.7
2024-03-20T07:31:59.262Z,976.7
2024-03-20T07:32:59.360Z,976.7
2024-03-20T07:33:59.325Z,976.7
2024-03-20T07:34:59.258Z,976.4
2024-03-20T07:35:59.267Z,976
2024-03-20T07:36:59.266Z,976.2
2024-03-20T07:37:59.293Z,975.4
2024-03-20T07:38:59.290Z,975.4
2024-03-20T07:39:59.357Z,975.4
2024-03-20T07:40:59.315Z,975.1
2024-03-20T07:41:59.252Z,975.1
2024-03-20T07:42:59.252Z,975.1
2024-03-20T07:43:59.323Z,974.9
2024-03-20T07:44:59.278Z,974.5
2024-03-20T07:45:59.254Z,974.3
2024-03-20T07:46:59.301Z,974.5
2024-03-20T07:47:59.262Z,974.7
2024-03-20T07:48:59.249Z,974.9
2024-03-20T07:49:59.262Z,974.5
2024-03-20T07:50:59.255Z,974.5
2024-03-20T07:51:59.254Z,974.5
2024-03-20T07:52:59.253Z,974
2024-03-20T07:54:00.485Z,974
2024-03-20T07:54:59.249Z,974
2024-03-20T07:55:59.258Z,973.8
2024-03-20T07:56:59.327Z,973.6
2024-03-20T07:57:59.315Z,973.6
2024-03-20T07:58:59.267Z,973.4
2024-03-20T07:59:59.253Z,972.7
2024-03-20T08:00:59.315Z,972.3
2024-03-20T08:01:59.265Z,972.7
2024-03-20T08:02:59.252Z,972.7
2024-03-20T08:03:59.265Z,971.9
2024-03-20T08:04:59.288Z,972.3
2024-03-20T08:05:59.251Z,971.9
2024-03-20T08:06:59.250Z,972.1
2024-03-20T08:07:59.248Z,971.9
2024-03-20T08:08:59.266Z,971.9
2024-03-20T08:09:59.311Z,970.8
2024-03-20T08:10:59.264Z,971.2
2024-03-20T08:11:59.325Z,970.6
2024-03-20T08:12:59.285Z,971
2024-03-20T08:13:59.257Z,970.6
2024-03-20T08:14:59.380Z,971
2024-03-20T08:15:59.267Z,970.8
2024-03-20T08:16:59.277Z,971
2024-03-20T08:17:59.313Z,970.8
2024-03-20T08:18:59.250Z,970.6
2024-03-20T08:19:59.267Z,970.6
2024-03-20T08:20:59.268Z,970.6
2024-03-20T08:21:59.275Z,970.6
2024-03-20T08:22:59.253Z,970.6
2024-03-20T08:23:59.251Z,970.1
2024-03-20T08:24:59.252Z,969.3
2024-03-20T08:25:59.257Z,969.7
2024-03-20T08:26:59.251Z,970.1
2024-03-20T08:27:59.326Z,969.7
2024-03-20T08:28:59.278Z,969.7
2024-03-20T08:29:59.297Z,969.9
2024-03-20T08:30:59.409Z,970.1
2024-03-20T08:31:59.290Z,969.5
2024-03-20T08:32:59.265Z,969
2024-03-20T08:33:59.256Z,969.5
2024-03-20T08:34:59.253Z,969.3
2024-03-20T08:35:59.302Z,969.3
2024-03-20T08:36:59.280Z,969
2024-03-20T08:37:59.264Z,969.3
2024-03-20T08:38:59.253Z,969.7
2024-03-20T08:39:59.312Z,970.1
2024-03-20T08:40:59.277Z,968.8
2024-03-20T08:41:59.949Z,968
2024-03-20T08:42:59.384Z,968.4
2024-03-20T08:43:59.271Z,968.4
2024-03-20T08:44:59.264Z,968.8
2024-03-20T08:45:59.274Z,969.3
2024-03-20T08:46:59.274Z,969
2024-03-20T08:47:59.254Z,969
2024-03-20T08:48:59.324Z,969.3
2024-03-20T08:49:59.255Z,968.4
2024-03-20T08:50:59.285Z,968.4
2024-03-20T08:51:59.271Z,968.8
2024-03-20T08:52:59.285Z,969.3
2024-03-20T08:53:59.250Z,968
2024-03-20T08:54:59.287Z,967.3
2024-03-20T08:55:59.312Z,967.3
2024-03-20T08:56:59.253Z,966.2
2024-03-20T08:57:59.289Z,966.4
2024-03-20T08:58:59.422Z,965.1
2024-03-20T08:59:59.255Z,965.1
2024-03-20T09:00:59.319Z,966.7
2024-03-20T09:01:59.370Z,966.9
2024-03-20T09:02:59.264Z,965.8
2024-03-20T09:03:59.268Z,966
2024-03-20T09:04:59.294Z,966.2
2024-03-20T09:05:59.258Z,966.7
2024-03-20T09:06:59.266Z,966.4
2024-03-20T09:07:59.246Z,965.8
2024-03-20T09:08:59.275Z,965.4
2024-03-20T09:09:59.309Z,965.8
2024-03-20T09:10:59.270Z,965.8
2024-03-20T09:11:59.268Z,964.9
2024-03-20T09:12:59.258Z,964.9
2024-03-20T09:13:59.296Z,965.4
2024-03-20T09:14:59.255Z,964.5
2024-03-20T09:15:59.255Z,964.7
2024-03-20T09:16:59.254Z,965.4
2024-03-20T09:17:59.258Z,964.5
2024-03-20T09:18:59.285Z,965.8
2024-03-20T09:19:59.322Z,966.2
2024-03-20T09:20:59.308Z,965.8
2024-03-20T09:22:00.280Z,965.8
2024-03-20T09:22:59.303Z,965.8
2024-03-20T09:23:59.263Z,965.8
2024-03-20T09:24:59.266Z,966.4
2024-03-20T09:25:59.266Z,965.4
2024-03-20T09:26:59.297Z,964.9
2024-03-20T09:27:59.280Z,964
2024-03-20T09:28:59.260Z,964.7
2024-03-20T09:29:59.322Z,964.9
2024-03-20T09:30:59.264Z,964.9
2024-03-20T09:31:59.304Z,964.5
2024-03-20T09:32:59.288Z,964
2024-03-20T09:33:59.246Z,963.6
2024-03-20T09:34:59.295Z,963.8
2024-03-20T09:35:59.259Z,963.6
2024-03-20T09:36:59.282Z,963.8
2024-03-20T09:37:59.249Z,963.2
2024-03-20T09:38:59.306Z,963.8
2024-03-20T09:39:59.254Z,963.2
2024-03-20T09:40:59.414Z,963.6
2024-03-20T09:41:59.294Z,962.7
2024-03-20T09:42:59.251Z,963.4
2024-03-20T09:43:59.253Z,963.6
2024-03-20T09:44:59.257Z,963.6
2024-03-20T09:45:59.258Z,964
2024-03-20T09:46:59.257Z,963.6
2024-03-20T09:47:59.250Z,963.2
2024-03-20T09:48:59.264Z,963.8
2024-03-20T09:49:59.303Z,963.2
2024-03-20T09:50:59.253Z,962.7
2024-03-20T09:51:59.255Z,962.3
2024-03-20T09:52:59.253Z,963.2
2024-03-20T09:53:59.255Z,962.7
2024-03-20T09:54:59.252Z,963.2
2024-03-20T09:55:59.260Z,962.7
2024-03-20T09:56:59.246Z,962.7
2024-03-20T09:58:01.043Z,961.9
2024-03-20T09:58:59.250Z,962.7
2024-03-20T09:59:59.258Z,962.7
2024-03-20T10:00:59.254Z,962.7
2024-03-20T10:01:59.256Z,962.3
2024-03-20T10:02:59.257Z,961.9
2024-03-20T10:03:59.249Z,961.9
2024-03-20T10:04:59.318Z,962.1
2024-03-20T10:05:59.252Z,962.3
2024-03-20T10:06:59.569Z,961.9
2024-03-20T10:07:59.250Z,961.9
2024-03-20T10:08:59.286Z,961.4
2024-03-20T10:09:59.298Z,962.3
2024-03-20T10:10:59.252Z,963.2
2024-03-20T10:11:59.258Z,962.7
2024-03-20T10:12:59.260Z,961.9
2024-03-20T10:13:59.320Z,961.4
2024-03-20T10:14:59.251Z,961.9
2024-03-20T10:16:01.102Z,961.2
2024-03-20T10:17:06.660Z,962.3
2024-03-20T10:17:59.293Z,961.4
2024-03-20T10:18:59.250Z,961.4
2024-03-20T10:19:59.275Z,960.6
2024-03-20T10:20:59.251Z,961
2024-03-20T10:21:59.250Z,962.3
2024-03-20T10:22:59.389Z,962.7
2024-03-20T10:23:59.260Z,963
2024-03-20T10:24:59.266Z,962.3
2024-03-20T10:25:59.281Z,960.6
2024-03-20T10:26:59.261Z,961
2024-03-20T10:27:59.254Z,961.4
2024-03-20T10:28:59.252Z,961.7
2024-03-20T10:30:00.497Z,962.1
2024-03-20T10:30:59.276Z,961.9
2024-03-20T10:31:59.250Z,961.4
2024-03-20T10:32:59.253Z,960.1
2024-03-20T10:33:59.274Z,959.7
2024-03-20T10:34:59.257Z,958.8
2024-03-20T10:35:59.267Z,958.8
2024-03-20T10:36:59.245Z,959.7
2024-03-20T10:37:59.244Z,960.4
2024-03-20T10:39:59.250Z,959.3
2024-03-20T10:40:59.265Z,958
2024-03-20T10:42:01.420Z,958
2024-03-20T10:42:59.264Z,957.5
2024-03-20T10:43:59.252Z,958.6
2024-03-20T10:44:59.250Z,958
2024-03-20T10:45:59.252Z,959
2024-03-20T10:46:59.257Z,958
2024-03-20T10:47:59.257Z,958.8
2024-03-20T10:48:59.330Z,958.6
2024-03-20T10:49:59.264Z,959.7
2024-03-20T10:50:59.254Z,959.7
2024-03-20T10:51:59.246Z,958.8
2024-03-20T10:52:59.261Z,957.1
2024-03-20T10:53:59.278Z,957.5
2024-03-20T10:54:59.249Z,957.5
2024-03-20T10:55:59.265Z,955.8
2024-03-20T10:56:59.575Z,955.8
2024-03-20T10:57:59.252Z,956.9
2024-03-20T10:58:59.253Z,957.1
2024-03-20T10:59:59.257Z,958.8
2024-03-20T11:00:59.248Z,959.3
2024-03-20T11:01:59.249Z,958.4
2024-03-20T11:02:59.256Z,958.8
2024-03-20T11:03:59.247Z,957.1
2024-03-20T11:04:59.257Z,957.1
2024-03-20T11:05:59.248Z,958
2024-03-20T11:06:59.259Z,958.6
2024-03-20T11:07:59.255Z,958.6
2024-03-20T11:08:59.247Z,955.8
2024-03-20T11:09:59.256Z,955.8
2024-03-20T11:10:59.254Z,955.6
2024-03-20T11:11:59.263Z,956.7
2024-03-20T11:12:59.252Z,955.6
2024-03-20T11:13:59.254Z,956.7
2024-03-20T11:14:59.266Z,957.7
2024-03-20T11:15:59.255Z,956.7
2024-03-20T11:16:59.255Z,955.8
2024-03-20T11:17:59.256Z,955.6
2024-03-20T11:18:59.260Z,953.8
2024-03-20T11:19:59.271Z,955.6
2024-03-20T11:20:59.256Z,955.8
2024-03-20T11:21:59.275Z,953.6
2024-03-20T11:22:59.255Z,953.6
2024-03-20T11:23:59.259Z,953.6
2024-03-20T11:24:59.251Z,954.9
2024-03-20T11:25:59.251Z,955.1
2024-03-20T11:26:59.249Z,954
2024-03-20T11:27:59.264Z,954
2024-03-20T11:28:59.283Z,954
2024-03-20T11:29:59.266Z,954.5
2024-03-20T11:30:59.249Z,954.3
2024-03-20T11:31:59.272Z,954.5
2024-03-20T11:32:59.266Z,954.9
2024-03-20T11:33:59.281Z,955.6
2024-03-20T11:34:59.272Z,954.9
2024-03-20T11:35:59.284Z,954.9
2024-03-20T11:36:59.253Z,955.8
2024-03-20T11:37:59.256Z,954.3
2024-03-20T11:38:59.267Z,954.3
2024-03-20T11:39:59.257Z,953.6
2024-03-20T11:40:59.278Z,953.6
2024-03-20T11:41:59.257Z,954
2024-03-20T11:42:59.258Z,954
2024-03-20T11:43:59.274Z,953.8
2024-03-20T11:44:59.258Z,953.2
2024-03-20T11:45:59.252Z,953.2
2024-03-20T11:46:59.257Z,954.3
2024-03-20T11:47:59.272Z,952.7
2024-03-20T11:48:59.252Z,953.6
2024-03-20T11:49:59.258Z,954.5
2024-03-20T11:50:59.256Z,954.9
2024-03-20T11:51:59.257Z,953.6
2024-03-20T11:52:59.255Z,953.2
2024-03-20T11:53:59.253Z,954.5
2024-03-20T11:54:59.263Z,952.7
2024-03-20T11:55:59.277Z,952.3
2024-03-20T11:56:59.259Z,952.5
2024-03-20T11:57:59.257Z,952.3
2024-03-20T11:58:59.261Z,952.7
2024-03-20T11:59:59.262Z,952.7
2024-03-20T12:00:59.275Z,951.4
2024-03-20T12:01:59.265Z,951
2024-03-20T12:02:59.258Z,950.8
2024-03-20T12:03:59.261Z,952.7
2024-03-20T12:04:59.273Z,950.8
2024-03-20T12:05:59.265Z,949.7
2024-03-20T12:06:59.259Z,950.4
2024-03-20T12:07:59.282Z,950.6
2024-03-20T12:08:59.257Z,950.1
2024-03-20T12:09:59.270Z,950.1
2024-03-20T12:10:59.257Z,949.7
2024-03-20T12:11:59.267Z,950.6
2024-03-20T12:12:59.263Z,949.7
2024-03-20T12:13:59.259Z,951
2024-03-20T12:14:59.270Z,952.1
2024-03-20T12:15:59.275Z,953
2024-03-20T12:16:59.257Z,950.8
2024-03-20T12:17:59.271Z,952.1
2024-03-20T12:18:59.267Z,950.1
2024-03-20T12:19:59.256Z,950.1
2024-03-20T12:20:59.266Z,951.4
2024-03-20T12:21:59.256Z,950.1
2024-03-20T12:22:59.257Z,951
2024-03-20T12:23:59.275Z,951.7
2024-03-20T12:25:03.470Z,951
2024-03-20T12:25:59.256Z,950.6
2024-03-20T12:26:59.265Z,948.4
2024-03-20T12:27:59.260Z,948.6
2024-03-20T12:28:59.261Z,949
2024-03-20T12:29:59.258Z,951
2024-03-20T12:30:59.254Z,951
2024-03-20T12:31:59.260Z,950.1
2024-03-20T12:32:59.261Z,950.6
2024-03-20T12:33:59.280Z,951.9
2024-03-20T12:34:59.253Z,950.1
2024-03-20T12:35:59.276Z,951
2024-03-20T12:37:01.537Z,951.4
2024-03-20T12:37:59.272Z,948.2
2024-03-20T12:38:59.254Z,950.4
2024-03-20T12:39:59.321Z,949.7
2024-03-20T12:40:59.269Z,949.7
2024-03-20T12:41:59.262Z,949.3
2024-03-20T12:42:59.262Z,947.5
2024-03-20T12:43:59.265Z,948.6
2024-03-20T12:44:59.270Z,948.4
2024-03-20T12:45:59.281Z,948.4
2024-03-20T12:46:59.262Z,947.1
2024-03-20T12:48:00.826Z,947.7
2024-03-20T12:48:59.255Z,947.7
2024-03-20T12:49:59.257Z,948.6
2024-03-20T12:50:59.251Z,948.8
2024-03-20T12:51:59.307Z,948
2024-03-20T12:52:59.257Z,949.3
2024-03-20T12:53:59.309Z,948.4
2024-03-20T12:54:59.258Z,948.4
2024-03-20T12:55:59.259Z,948.4
2024-03-20T12:56:59.253Z,947.5
2024-03-20T12:57:59.467Z,948
2024-03-20T12:58:59.261Z,948.4
2024-03-20T12:59:59.277Z,949.3
2024-03-20T13:00:59.264Z,949